ANZ948 YSSY-YSCB
Flight info
| Callsign | ANZ948 |
|---|---|
| Flight time | 0h 40m |
| Altitude | 16000 |
| Route | WOL H65 LEECE |
| Aircraft | A20N/M-SDE2E3FGHIRWXY/LB1 |
Departure
| Time | 2026-05-07 02:17 |
|---|---|
| Airport | Sydney Kingsford Smith International Airport (YSSY) |
Arrival
| Time | 2026-05-07 02:58 |
|---|---|
| Airport | Canberra Airport (YSCB) |
| Time | Latitude | Longitude | Altitude | Speed | Heading |
|---|---|---|---|---|---|
| 2026-05-07 01:47 | -33.93512 | 151.17686 | 33 ft | 0 kts | 97° |
| 2026-05-07 02:05 | -33.93511 | 151.17676 | 32 ft | 2 kts | 97° |
| 2026-05-07 02:05 | -33.93509 | 151.17656 | 32 ft | 2 kts | 97° |
| 2026-05-07 02:06 | -33.93507 | 151.17636 | 31 ft | 3 kts | 102° |
| 2026-05-07 02:06 | -33.93500 | 151.17617 | 32 ft | 3 kts | 140° |
| 2026-05-07 02:06 | -33.93484 | 151.17607 | 30 ft | 1 kts | 177° |
| 2026-05-07 02:08 | -33.93493 | 151.17608 | 32 ft | 4 kts | 177° |
| 2026-05-07 02:09 | -33.93540 | 151.17605 | 32 ft | 10 kts | 179° |
| 2026-05-07 02:09 | -33.93627 | 151.17627 | 32 ft | 14 kts | 158° |
| 2026-05-07 02:09 | -33.93708 | 151.17694 | 29 ft | 15 kts | 128° |
| 2026-05-07 02:09 | -33.93751 | 151.17767 | 29 ft | 9 kts | 142° |
| 2026-05-07 02:10 | -33.93815 | 151.17777 | 24 ft | 11 kts | 188° |
| 2026-05-07 02:10 | -33.93895 | 151.17777 | 24 ft | 11 kts | 169° |
| 2026-05-07 02:10 | -33.93916 | 151.17783 | 24 ft | 0 kts | 168° |
| 2026-05-07 02:11 | -33.93940 | 151.17789 | 25 ft | 8 kts | 168° |
| 2026-05-07 02:12 | -33.94026 | 151.17812 | 28 ft | 17 kts | 167° |
| 2026-05-07 02:12 | -33.94174 | 151.17850 | 27 ft | 25 kts | 166° |
| 2026-05-07 02:12 | -33.94371 | 151.17904 | 28 ft | 32 kts | 169° |
| 2026-05-07 02:12 | -33.94585 | 151.17901 | 28 ft | 30 kts | 168° |
| 2026-05-07 02:13 | -33.94789 | 151.17952 | 26 ft | 30 kts | 167° |
| 2026-05-07 02:13 | -33.94996 | 151.18004 | 27 ft | 29 kts | 168° |
| 2026-05-07 02:13 | -33.95089 | 151.18166 | 27 ft | 27 kts | 81° |
| 2026-05-07 02:13 | -33.95055 | 151.18379 | 28 ft | 26 kts | 78° |
| 2026-05-07 02:14 | -33.95017 | 151.18582 | 29 ft | 24 kts | 78° |
| 2026-05-07 02:14 | -33.94993 | 151.18726 | 27 ft | 0 kts | 78° |
| 2026-05-07 02:15 | -33.94991 | 151.18738 | 27 ft | 3 kts | 77° |
| 2026-05-07 02:16 | -33.94989 | 151.18782 | 27 ft | 7 kts | 98° |
| 2026-05-07 02:16 | -33.95031 | 151.18842 | 27 ft | 12 kts | 155° |
| 2026-05-07 02:16 | -33.95134 | 151.18877 | 29 ft | 23 kts | 168° |
| 2026-05-07 02:16 | -33.95400 | 151.18941 | 25 ft | 64 kts | 168° |
| 2026-05-07 02:17 | -33.96098 | 151.19120 | 32 ft | 143 kts | 168° |
| 2026-05-07 02:17 | -33.97195 | 151.19464 | 466 ft | 169 kts | 171° |
| 2026-05-07 02:17 | -33.98343 | 151.19972 | 1263 ft | 192 kts | 149° |
| 2026-05-07 02:17 | -33.99118 | 151.21384 | 1942 ft | 223 kts | 106° |
| 2026-05-07 02:18 | -33.99083 | 151.23399 | 2325 ft | 260 kts | 81° |
| 2026-05-07 02:18 | -33.99053 | 151.25651 | 2906 ft | 277 kts | 108° |
| 2026-05-07 02:18 | -34.00008 | 151.27607 | 3777 ft | 270 kts | 144° |
| 2026-05-07 02:18 | -34.01608 | 151.28673 | 4679 ft | 261 kts | 166° |
| 2026-05-07 02:19 | -34.03311 | 151.29456 | 5550 ft | 263 kts | 165° |
| 2026-05-07 02:19 | -34.04983 | 151.30386 | 6431 ft | 267 kts | 161° |
| 2026-05-07 02:19 | -34.06618 | 151.31478 | 7242 ft | 272 kts | 158° |
| 2026-05-07 02:19 | -34.08293 | 151.32603 | 7935 ft | 279 kts | 160° |
| 2026-05-07 02:20 | -34.10000 | 151.33799 | 8669 ft | 290 kts | 154° |
| 2026-05-07 02:20 | -34.11585 | 151.35407 | 9412 ft | 305 kts | 141° |
| 2026-05-07 02:20 | -34.13105 | 151.37240 | 10152 ft | 311 kts | 145° |
| 2026-05-07 02:20 | -34.14931 | 151.38669 | 10491 ft | 316 kts | 169° |
| 2026-05-07 02:21 | -34.17097 | 151.38899 | 10765 ft | 315 kts | 198° |
| 2026-05-07 02:21 | -34.19155 | 151.38032 | 11305 ft | 314 kts | 215° |
| 2026-05-07 02:21 | -34.20997 | 151.36631 | 12011 ft | 313 kts | 224° |
| 2026-05-07 02:21 | -34.22667 | 151.34932 | 12752 ft | 315 kts | 231° |
| 2026-05-07 02:22 | -34.24224 | 151.33051 | 13509 ft | 318 kts | 235° |
| 2026-05-07 02:22 | -34.25722 | 151.31056 | 14217 ft | 322 kts | 237° |
| 2026-05-07 02:22 | -34.27171 | 151.29017 | 14928 ft | 325 kts | 239° |
| 2026-05-07 02:22 | -34.28625 | 151.26913 | 15593 ft | 328 kts | 240° |
| 2026-05-07 02:23 | -34.30075 | 151.24781 | 15944 ft | 329 kts | 240° |
| 2026-05-07 02:23 | -34.31509 | 151.22659 | 16008 ft | 322 kts | 241° |
| 2026-05-07 02:23 | -34.32916 | 151.20566 | 16016 ft | 320 kts | 241° |
| 2026-05-07 02:23 | -34.34314 | 151.18474 | 16017 ft | 319 kts | 241° |
| 2026-05-07 02:24 | -34.35708 | 151.16383 | 16013 ft | 319 kts | 241° |
| 2026-05-07 02:24 | -34.37100 | 151.14292 | 16016 ft | 319 kts | 240° |
| 2026-05-07 02:24 | -34.38491 | 151.12201 | 16011 ft | 319 kts | 240° |
| 2026-05-07 02:24 | -34.39872 | 151.10101 | 16014 ft | 317 kts | 242° |
| 2026-05-07 02:25 | -34.41104 | 151.07912 | 16016 ft | 313 kts | 246° |
| 2026-05-07 02:25 | -34.42263 | 151.05676 | 16014 ft | 313 kts | 246° |
| 2026-05-07 02:25 | -34.43405 | 151.03436 | 16018 ft | 313 kts | 246° |
| 2026-05-07 02:25 | -34.44546 | 151.01194 | 16018 ft | 313 kts | 246° |
| 2026-05-07 02:26 | -34.45690 | 150.98949 | 16017 ft | 313 kts | 246° |
| 2026-05-07 02:26 | -34.46832 | 150.96709 | 16021 ft | 313 kts | 245° |
| 2026-05-07 02:26 | -34.47976 | 150.94465 | 16022 ft | 313 kts | 245° |
| 2026-05-07 02:26 | -34.49117 | 150.92226 | 16024 ft | 313 kts | 245° |
| 2026-05-07 02:27 | -34.50262 | 150.89979 | 16023 ft | 313 kts | 245° |
| 2026-05-07 02:27 | -34.51404 | 150.87735 | 16023 ft | 313 kts | 245° |
| 2026-05-07 02:27 | -34.52546 | 150.85493 | 16021 ft | 312 kts | 244° |
| 2026-05-07 02:27 | -34.53685 | 150.83254 | 16022 ft | 312 kts | 244° |
| 2026-05-07 02:28 | -34.54823 | 150.81015 | 16023 ft | 312 kts | 244° |
| 2026-05-07 02:28 | -34.55985 | 150.78795 | 16024 ft | 312 kts | 242° |
| 2026-05-07 02:28 | -34.57221 | 150.76622 | 16027 ft | 313 kts | 240° |
| 2026-05-07 02:28 | -34.58500 | 150.74483 | 16025 ft | 313 kts | 239° |
| 2026-05-07 02:29 | -34.59795 | 150.72366 | 16020 ft | 312 kts | 239° |
| 2026-05-07 02:29 | -34.61088 | 150.70260 | 16025 ft | 312 kts | 239° |
| 2026-05-07 02:29 | -34.62386 | 150.68140 | 16028 ft | 312 kts | 238° |
| 2026-05-07 02:29 | -34.63672 | 150.66028 | 16026 ft | 311 kts | 238° |
| 2026-05-07 02:30 | -34.64936 | 150.63943 | 16025 ft | 310 kts | 238° |
| 2026-05-07 02:30 | -34.66212 | 150.61831 | 16030 ft | 310 kts | 238° |
| 2026-05-07 02:30 | -34.67482 | 150.59721 | 16034 ft | 310 kts | 238° |
| 2026-05-07 02:30 | -34.68752 | 150.57606 | 16025 ft | 310 kts | 238° |
| 2026-05-07 02:31 | -34.70021 | 150.55491 | 16035 ft | 310 kts | 237° |
| 2026-05-07 02:31 | -34.71288 | 150.53378 | 16030 ft | 309 kts | 237° |
| 2026-05-07 02:31 | -34.72554 | 150.51266 | 16033 ft | 309 kts | 237° |
| 2026-05-07 02:31 | -34.73821 | 150.49153 | 16035 ft | 309 kts | 237° |
| 2026-05-07 02:32 | -34.75087 | 150.47040 | 16035 ft | 309 kts | 236° |
| 2026-05-07 02:32 | -34.76352 | 150.44928 | 16034 ft | 309 kts | 236° |
| 2026-05-07 02:32 | -34.77614 | 150.42820 | 16034 ft | 309 kts | 236° |
| 2026-05-07 02:32 | -34.78878 | 150.40707 | 16034 ft | 308 kts | 236° |
| 2026-05-07 02:33 | -34.80137 | 150.38599 | 16035 ft | 308 kts | 236° |
| 2026-05-07 02:33 | -34.81395 | 150.36494 | 16042 ft | 308 kts | 235° |
| 2026-05-07 02:33 | -34.82651 | 150.34391 | 16039 ft | 307 kts | 235° |
| 2026-05-07 02:33 | -34.83905 | 150.32291 | 16040 ft | 306 kts | 235° |
| 2026-05-07 02:34 | -34.85157 | 150.30193 | 16036 ft | 306 kts | 235° |
| 2026-05-07 02:34 | -34.86406 | 150.28098 | 16040 ft | 306 kts | 234° |
| 2026-05-07 02:34 | -34.87654 | 150.26004 | 16046 ft | 305 kts | 234° |
| 2026-05-07 02:34 | -34.88898 | 150.23914 | 16033 ft | 305 kts | 234° |
| 2026-05-07 02:35 | -34.90140 | 150.21825 | 16040 ft | 304 kts | 234° |
| 2026-05-07 02:35 | -34.91383 | 150.19735 | 16045 ft | 305 kts | 234° |
| 2026-05-07 02:35 | -34.92625 | 150.17645 | 16040 ft | 304 kts | 234° |
| 2026-05-07 02:35 | -34.93866 | 150.15556 | 16042 ft | 304 kts | 234° |
| 2026-05-07 02:36 | -34.95107 | 150.13466 | 16043 ft | 304 kts | 234° |
| 2026-05-07 02:36 | -34.95928 | 150.12083 | 16039 ft | 304 kts | 233° |
| 2026-05-07 02:36 | -34.97166 | 150.09995 | 16040 ft | 304 kts | 233° |
| 2026-05-07 02:36 | -34.98403 | 150.07908 | 16043 ft | 304 kts | 233° |
| 2026-05-07 02:37 | -34.99639 | 150.05822 | 16042 ft | 303 kts | 233° |
| 2026-05-07 02:37 | -35.01275 | 150.03057 | 16042 ft | 303 kts | 233° |
| 2026-05-07 02:37 | -35.02508 | 150.00971 | 16041 ft | 303 kts | 233° |
| 2026-05-07 02:37 | -35.03341 | 149.99563 | 16039 ft | 303 kts | 233° |
| 2026-05-07 02:38 | -35.04573 | 149.97479 | 16041 ft | 303 kts | 233° |
| 2026-05-07 02:38 | -35.05884 | 149.95480 | 16043 ft | 302 kts | 228° |
| 2026-05-07 02:38 | -35.07305 | 149.93595 | 16042 ft | 302 kts | 226° |
| 2026-05-07 02:38 | -35.08747 | 149.91738 | 16046 ft | 302 kts | 226° |
| 2026-05-07 02:39 | -35.10194 | 149.89880 | 16045 ft | 301 kts | 226° |
| 2026-05-07 02:39 | -35.11638 | 149.88023 | 16044 ft | 301 kts | 226° |
| 2026-05-07 02:39 | -35.13062 | 149.86189 | 16044 ft | 301 kts | 226° |
| 2026-05-07 02:39 | -35.14498 | 149.84336 | 16045 ft | 298 kts | 226° |
| 2026-05-07 02:40 | -35.15910 | 149.82513 | 16047 ft | 293 kts | 226° |
| 2026-05-07 02:40 | -35.17305 | 149.80709 | 16046 ft | 292 kts | 225° |
| 2026-05-07 02:40 | -35.18697 | 149.78910 | 16044 ft | 291 kts | 225° |
| 2026-05-07 02:40 | -35.20089 | 149.77108 | 16042 ft | 291 kts | 225° |
| 2026-05-07 02:41 | -35.21479 | 149.75308 | 16045 ft | 291 kts | 225° |
| 2026-05-07 02:41 | -35.22889 | 149.73482 | 15946 ft | 291 kts | 225° |
| 2026-05-07 02:41 | -35.24276 | 149.71685 | 15684 ft | 290 kts | 225° |
| 2026-05-07 02:41 | -35.25659 | 149.69891 | 15425 ft | 289 kts | 225° |
| 2026-05-07 02:42 | -35.27018 | 149.68129 | 15166 ft | 288 kts | 225° |
| 2026-05-07 02:42 | -35.28399 | 149.66336 | 14902 ft | 281 kts | 225° |
| 2026-05-07 02:42 | -35.29719 | 149.64620 | 14679 ft | 272 kts | 225° |
| 2026-05-07 02:42 | -35.30991 | 149.62966 | 14511 ft | 261 kts | 225° |
| 2026-05-07 02:43 | -35.32209 | 149.61381 | 14360 ft | 250 kts | 225° |
| 2026-05-07 02:43 | -35.33363 | 149.59881 | 14235 ft | 240 kts | 225° |
| 2026-05-07 02:43 | -35.34486 | 149.58418 | 14116 ft | 230 kts | 225° |
| 2026-05-07 02:43 | -35.35557 | 149.57024 | 14014 ft | 218 kts | 225° |
| 2026-05-07 02:44 | -35.36556 | 149.55720 | 13924 ft | 203 kts | 225° |
| 2026-05-07 02:44 | -35.37498 | 149.54491 | 13681 ft | 194 kts | 224° |
| 2026-05-07 02:44 | -35.38420 | 149.53292 | 13262 ft | 193 kts | 224° |
| 2026-05-07 02:44 | -35.39340 | 149.52095 | 12868 ft | 193 kts | 225° |
| 2026-05-07 02:45 | -35.40255 | 149.50904 | 12509 ft | 191 kts | 225° |
| 2026-05-07 02:45 | -35.41164 | 149.49720 | 12145 ft | 191 kts | 225° |
| 2026-05-07 02:45 | -35.42072 | 149.48535 | 11772 ft | 191 kts | 225° |
| 2026-05-07 02:45 | -35.42980 | 149.47350 | 11394 ft | 191 kts | 225° |
| 2026-05-07 02:46 | -35.43888 | 149.46166 | 11034 ft | 190 kts | 226° |
| 2026-05-07 02:46 | -35.44799 | 149.44976 | 10611 ft | 193 kts | 226° |
| 2026-05-07 02:46 | -35.45713 | 149.43783 | 10282 ft | 191 kts | 226° |
| 2026-05-07 02:46 | -35.46601 | 149.42621 | 10142 ft | 181 kts | 226° |
| 2026-05-07 02:47 | -35.47434 | 149.41532 | 10022 ft | 169 kts | 226° |
| 2026-05-07 02:47 | -35.48211 | 149.40514 | 9877 ft | 157 kts | 227° |
| 2026-05-07 02:47 | -35.48932 | 149.39570 | 9703 ft | 146 kts | 226° |
| 2026-05-07 02:47 | -35.49612 | 149.38678 | 9411 ft | 140 kts | 226° |
| 2026-05-07 02:48 | -35.50266 | 149.37821 | 9306 ft | 137 kts | 226° |
| 2026-05-07 02:48 | -35.50917 | 149.36969 | 9207 ft | 137 kts | 226° |
| 2026-05-07 02:48 | -35.51567 | 149.36118 | 9074 ft | 136 kts | 226° |
| 2026-05-07 02:48 | -35.52216 | 149.35269 | 8893 ft | 136 kts | 226° |
| 2026-05-07 02:49 | -35.52863 | 149.34420 | 8720 ft | 136 kts | 226° |
| 2026-05-07 02:49 | -35.53510 | 149.33572 | 8547 ft | 136 kts | 226° |
| 2026-05-07 02:49 | -35.54155 | 149.32726 | 8345 ft | 136 kts | 226° |
| 2026-05-07 02:49 | -35.54744 | 149.31830 | 8178 ft | 135 kts | 234° |
| 2026-05-07 02:50 | -35.55181 | 149.30808 | 8032 ft | 136 kts | 244° |
| 2026-05-07 02:50 | -35.55432 | 149.29674 | 7899 ft | 139 kts | 253° |
| 2026-05-07 02:50 | -35.55578 | 149.28496 | 7774 ft | 139 kts | 255° |
| 2026-05-07 02:50 | -35.55709 | 149.27322 | 7641 ft | 138 kts | 255° |
| 2026-05-07 02:51 | -35.55840 | 149.26158 | 7519 ft | 137 kts | 255° |
| 2026-05-07 02:51 | -35.55971 | 149.24996 | 7395 ft | 138 kts | 255° |
| 2026-05-07 02:51 | -35.56095 | 149.23827 | 7195 ft | 139 kts | 258° |
| 2026-05-07 02:51 | -35.56041 | 149.22626 | 6940 ft | 144 kts | 274° |
| 2026-05-07 02:52 | -35.55649 | 149.21458 | 6746 ft | 154 kts | 293° |
| 2026-05-07 02:52 | -35.54892 | 149.20479 | 6620 ft | 165 kts | 315° |
| 2026-05-07 02:52 | -35.53844 | 149.19821 | 6405 ft | 174 kts | 330° |
| 2026-05-07 02:52 | -35.52647 | 149.19511 | 6183 ft | 178 kts | 346° |
| 2026-05-07 02:53 | -35.51394 | 149.19454 | 5908 ft | 181 kts | 352° |
| 2026-05-07 02:53 | -35.50135 | 149.19455 | 5651 ft | 180 kts | 353° |
| 2026-05-07 02:53 | -35.48889 | 149.19455 | 5400 ft | 179 kts | 352° |
| 2026-05-07 02:53 | -35.47650 | 149.19450 | 5151 ft | 177 kts | 352° |
| 2026-05-07 02:54 | -35.46420 | 149.19445 | 4920 ft | 177 kts | 352° |
| 2026-05-07 02:54 | -35.45193 | 149.19444 | 4679 ft | 175 kts | 352° |
| 2026-05-07 02:54 | -35.43978 | 149.19444 | 4424 ft | 174 kts | 352° |
| 2026-05-07 02:54 | -35.42768 | 149.19444 | 4180 ft | 173 kts | 353° |
| 2026-05-07 02:55 | -35.41570 | 149.19445 | 3966 ft | 168 kts | 352° |
| 2026-05-07 02:55 | -35.40444 | 149.19446 | 3717 ft | 157 kts | 351° |
| 2026-05-07 02:55 | -35.39364 | 149.19445 | 3511 ft | 154 kts | 351° |
| 2026-05-07 02:55 | -35.38310 | 149.19444 | 3279 ft | 153 kts | 350° |
| 2026-05-07 02:56 | -35.37234 | 149.19444 | 3058 ft | 153 kts | 351° |
| 2026-05-07 02:56 | -35.36173 | 149.19444 | 2828 ft | 152 kts | 352° |
| 2026-05-07 02:56 | -35.35128 | 149.19445 | 2605 ft | 150 kts | 350° |
| 2026-05-07 02:56 | -35.34075 | 149.19443 | 2402 ft | 151 kts | 352° |
| 2026-05-07 02:57 | -35.33044 | 149.19444 | 2216 ft | 149 kts | 352° |
| 2026-05-07 02:57 | -35.31996 | 149.19444 | 2016 ft | 148 kts | 352° |
| 2026-05-07 02:57 | -35.31002 | 149.19431 | 1887 ft | 133 kts | 357° |
| 2026-05-07 02:57 | -35.30350 | 149.19429 | 1879 ft | 57 kts | 2° |
| 2026-05-07 02:58 | -35.30168 | 149.19355 | 1881 ft | 8 kts | 290° |
| 2026-05-07 02:58 | -35.30167 | 149.19352 | 1876 ft | 0 kts | 289° |
| 2026-05-07 03:00 | -35.30167 | 149.19351 | 1876 ft | 0 kts | 289° |
| 2026-05-07 03:00 | -35.30161 | 149.19327 | 1879 ft | 6 kts | 284° |
| 2026-05-07 03:00 | -35.30163 | 149.19259 | 1881 ft | 12 kts | 256° |
| 2026-05-07 03:00 | -35.30235 | 149.19158 | 1881 ft | 21 kts | 219° |
| 2026-05-07 03:01 | -35.30402 | 149.19005 | 1874 ft | 36 kts | 198° |
| 2026-05-07 03:01 | -35.30558 | 149.19049 | 1883 ft | 9 kts | 152° |
| 2026-05-07 03:01 | -35.30589 | 149.19049 | 1885 ft | 9 kts | 194° |
| 2026-05-07 03:01 | -35.30623 | 149.19023 | 1881 ft | 0 kts | 219° |